Time;durP1;ratioP1;P1;durP2;ratioP2;P2;SDS_P1;SDS_P2;PMS_P1;PMS_P2;Temp;Humidity;BMP_temperature;BMP_pressure;BME280_temperature;BME280_humidity;BME280_pressure;Samples;Min_cycle;Max_cycle;Signal;HPM_P1;HPM_P2
2023/09/18 00:00:50;;;;;;;92.20;87.60;;;;;;;;;;5039364;28;20071;-66
2023/09/18 00:03:20;;;;;;;95.32;90.35;;;;;;;;;;5035603;28;20029;-66
2023/09/18 00:05:49;;;;;;;89.20;84.72;;;;;;;;;;5039370;28;20037;-65
2023/09/18 00:08:15;;;;;;;90.32;85.78;;;;;;;;;;5023117;28;20135;-65
2023/09/18 00:10:41;;;;;;;87.80;83.43;;;;;;;;;;5036376;28;20487;-66
2023/09/18 00:13:06;;;;;;;96.50;91.65;;;;;;;;;;5022800;28;20119;-66
2023/09/18 00:15:32;;;;;;;89.28;84.80;;;;;;;;;;5036368;28;20041;-65
2023/09/18 00:17:57;;;;;;;91.45;86.93;;;;;;;;;;5038219;28;20041;-65
2023/09/18 00:20:26;;;;;;;88.72;84.25;;;;;;;;;;5039795;28;20037;-65
2023/09/18 00:22:55;;;;;;;76.00;71.95;;;;;;;;;;5037756;28;20041;-66
2023/09/18 00:25:21;;;;;;;83.00;78.72;;;;;;;;;;5039205;28;20423;-65
2023/09/18 00:27:47;;;;;;;90.38;85.55;;;;;;;;;;5038866;28;20046;-66
2023/09/18 00:30:12;;;;;;;75.05;71.28;;;;;;;;;;5051512;28;20029;-66
2023/09/18 00:32:37;;;;;;;93.97;89.05;;;;;;;;;;5022782;28;20382;-66
2023/09/18 00:35:03;;;;;;;76.75;72.80;;;;;;;;;;5036157;28;20029;-66
2023/09/18 00:37:29;;;;;;;85.63;81.30;;;;;;;;;;5036709;28;20060;-66
2023/09/18 00:39:54;;;;;;;84.30;80.07;;;;;;;;;;5038195;28;20048;-66
2023/09/18 00:42:22;;;;;;;94.22;89.53;;;;;;;;;;5037770;28;20102;-66
2023/09/18 00:44:48;;;;;;;96.32;91.50;;;;;;;;;;5035681;28;20029;-66
2023/09/18 00:47:15;;;;;;;87.45;82.95;;;;;;;;;;5040589;28;20530;-65
2023/09/18 00:49:43;;;;;;;97.82;92.72;;;;;;;;;;5038340;28;20042;-65
2023/09/18 00:52:10;;;;;;;127.55;121.32;;;;;;;;;;5041466;28;20029;-66
2023/09/18 00:54:37;;;;;;;142.23;135.15;;;;;;;;;;5035899;28;20168;-66
2023/09/18 00:57:03;;;;;;;169.77;161.45;;;;;;;;;;5037082;28;20041;-65
2023/09/18 00:59:28;;;;;;;167.20;159.02;;;;;;;;;;5036792;28;20310;-65
2023/09/18 01:01:54;;;;;;;165.80;157.57;;;;;;;;;;5038811;28;20044;-66
2023/09/18 01:04:20;;;;;;;162.77;154.80;;;;;;;;;;5039119;28;20048;-66
2023/09/18 01:06:45;;;;;;;170.52;162.18;;;;;;;;;;5037677;28;20360;-66
2023/09/18 01:09:14;;;;;;;163.68;155.63;;;;;;;;;;5038591;28;20029;-65
2023/09/18 01:12:05;;;;;;;138.43;131.60;;;;;;;;;;5035892;28;20375;-66
2023/09/18 01:14:39;;;;;;;146.35;139.18;;;;;;;;;;5037875;28;20029;-65
2023/09/18 01:17:07;;;;;;;137.82;130.98;;;;;;;;;;5037660;28;20653;-67
2023/09/18 01:19:39;;;;;;;126.88;120.45;;;;;;;;;;5036781;28;20463;-67
2023/09/18 01:22:09;;;;;;;119.15;113.20;;;;;;;;;;5038022;28;20052;-68
2023/09/18 01:24:36;;;;;;;123.70;117.63;;;;;;;;;;5040785;28;20033;-68
2023/09/18 01:27:03;;;;;;;132.07;125.47;;;;;;;;;;5037702;28;20044;-67
2023/09/18 01:29:29;;;;;;;123.95;117.55;;;;;;;;;;5034943;28;20063;-66
2023/09/18 01:31:58;;;;;;;129.63;123.18;;;;;;;;;;5041693;28;20033;-66
2023/09/18 01:34:31;;;;;;;131.32;124.70;;;;;;;;;;5038714;28;20379;-68
2023/09/18 01:36:57;;;;;;;115.75;109.97;;;;;;;;;;5023604;28;20037;-68
2023/09/18 01:39:27;;;;;;;123.47;117.30;;;;;;;;;;5035761;28;20025;-68
2023/09/18 01:41:52;;;;;;;106.30;101.03;;;;;;;;;;5041316;28;20037;-68
2023/09/18 01:44:18;;;;;;;122.03;115.95;;;;;;;;;;5037919;28;20048;-67
2023/09/18 01:46:44;;;;;;;118.32;112.35;;;;;;;;;;5036904;28;20025;-68
2023/09/18 01:49:09;;;;;;;119.68;113.43;;;;;;;;;;5039176;28;20029;-68
2023/09/18 01:51:35;;;;;;;109.47;104.05;;;;;;;;;;5046818;28;20044;-68
2023/09/18 01:54:01;;;;;;;124.63;118.25;;;;;;;;;;5040444;28;20036;-67
2023/09/18 01:56:26;;;;;;;132.05;125.53;;;;;;;;;;5038277;28;20051;-68
2023/09/18 01:58:51;;;;;;;133.63;127.03;;;;;;;;;;5036898;28;20069;-68
2023/09/18 02:01:17;;;;;;;132.93;126.38;;;;;;;;;;5039534;28;20025;-68
2023/09/18 02:03:42;;;;;;;124.20;117.93;;;;;;;;;;5038307;28;20032;-67
2023/09/18 02:06:11;;;;;;;131.20;124.72;;;;;;;;;;5037374;28;20025;-66
2023/09/18 02:08:36;;;;;;;144.60;137.38;;;;;;;;;;5024158;28;20518;-67
2023/09/18 02:11:05;;;;;;;141.95;134.23;;;;;;;;;;5025597;28;20162;-67
2023/09/18 02:13:30;;;;;;;137.20;130.30;;;;;;;;;;5036897;28;20160;-67
2023/09/18 02:15:56;;;;;;;160.52;152.63;;;;;;;;;;5037030;28;20128;-63
2023/09/18 02:18:22;;;;;;;164.52;156.35;;;;;;;;;;5036722;28;20033;-64
2023/09/18 02:20:49;;;;;;;171.68;163.23;;;;;;;;;;5043849;28;20488;-64
2023/09/18 02:23:15;;;;;;;172.05;163.60;;;;;;;;;;5039563;28;20037;-63
2023/09/18 02:25:41;;;;;;;158.75;150.82;;;;;;;;;;5041131;28;20093;-63
2023/09/18 02:28:07;;;;;;;151.65;144.13;;;;;;;;;;5041931;28;20117;-63
2023/09/18 02:30:32;;;;;;;137.45;130.13;;;;;;;;;;5037605;28;20040;-63
2023/09/18 02:32:59;;;;;;;119.60;113.65;;;;;;;;;;5042121;28;20044;-63
2023/09/18 02:35:25;;;;;;;135.48;128.73;;;;;;;;;;5038141;28;20048;-63
2023/09/18 02:37:50;;;;;;;141.95;134.85;;;;;;;;;;5041776;28;20025;-63
2023/09/18 02:40:15;;;;;;;150.10;142.35;;;;;;;;;;5039061;28;20372;-63
2023/09/18 02:42:41;;;;;;;152.68;145.13;;;;;;;;;;5042762;28;20044;-63
2023/09/18 02:45:08;;;;;;;146.45;139.20;;;;;;;;;;5040852;28;20464;-63
2023/09/18 02:47:33;;;;;;;148.93;141.48;;;;;;;;;;5037120;28;20112;-63
2023/09/18 02:49:59;;;;;;;153.10;145.50;;;;;;;;;;5040355;28;20124;-63
2023/09/18 02:52:24;;;;;;;142.15;135.07;;;;;;;;;;5039516;28;20025;-63
2023/09/18 02:54:50;;;;;;;138.60;131.73;;;;;;;;;;5025956;28;20392;-63
2023/09/18 02:57:15;;;;;;;138.48;131.63;;;;;;;;;;5043475;28;20078;-63
2023/09/18 02:59:40;;;;;;;127.22;120.88;;;;;;;;;;5030012;28;20037;-63
2023/09/18 03:02:06;;;;;;;124.97;118.25;;;;;;;;;;5039235;28;20045;-64
2023/09/18 03:04:31;;;;;;;136.90;129.98;;;;;;;;;;5041005;28;20037;-63
2023/09/18 03:06:57;;;;;;;152.35;144.60;;;;;;;;;;5039519;28;20040;-63
2023/09/18 03:09:22;;;;;;;146.30;138.93;;;;;;;;;;5040318;28;20061;-63
2023/09/18 03:11:47;;;;;;;108.68;103.22;;;;;;;;;;5040371;28;20167;-63
2023/09/18 03:14:13;;;;;;;128.60;122.18;;;;;;;;;;5040262;28;20383;-63
2023/09/18 03:16:38;;;;;;;126.38;119.72;;;;;;;;;;5040534;28;20048;-63
2023/09/18 03:19:03;;;;;;;119.65;113.50;;;;;;;;;;5041259;28;20067;-64
2023/09/18 03:21:30;;;;;;;116.15;110.32;;;;;;;;;;5039483;28;20037;-63
2023/09/18 03:23:57;;;;;;;117.60;111.35;;;;;;;;;;5040028;28;20047;-63
2023/09/18 03:26:23;;;;;;;118.80;112.80;;;;;;;;;;5037430;28;20064;-64
2023/09/18 03:28:48;;;;;;;119.53;113.55;;;;;;;;;;5040533;28;20147;-64
2023/09/18 03:31:13;;;;;;;110.85;105.28;;;;;;;;;;5040926;28;20044;-64
2023/09/18 03:33:39;;;;;;;109.28;103.80;;;;;;;;;;5039160;28;20052;-64
2023/09/18 03:36:04;;;;;;;105.95;100.38;;;;;;;;;;5039677;28;20503;-64
2023/09/18 03:38:30;;;;;;;103.90;98.70;;;;;;;;;;5022902;28;20051;-64
2023/09/18 03:40:55;;;;;;;111.38;105.80;;;;;;;;;;5025992;28;20347;-64
2023/09/18 03:43:21;;;;;;;116.15;110.38;;;;;;;;;;5039813;28;20036;-64
2023/09/18 03:45:47;;;;;;;103.82;98.63;;;;;;;;;;5036772;28;20075;-64
2023/09/18 03:48:12;;;;;;;108.50;102.93;;;;;;;;;;5040127;28;20057;-64
2023/09/18 03:50:38;;;;;;;113.95;108.22;;;;;;;;;;5041971;28;20111;-63
2023/09/18 03:53:04;;;;;;;114.03;108.32;;;;;;;;;;5024483;28;20112;-64
2023/09/18 03:55:29;;;;;;;125.70;119.50;;;;;;;;;;5040195;28;20107;-64
2023/09/18 03:57:55;;;;;;;120.38;114.38;;;;;;;;;;5038703;28;20040;-64
2023/09/18 04:00:21;;;;;;;115.95;110.15;;;;;;;;;;5035421;28;20128;-64
2023/09/18 04:02:46;;;;;;;118.38;112.53;;;;;;;;;;5040370;28;20879;-64
2023/09/18 04:05:12;;;;;;;101.50;96.25;;;;;;;;;;5037187;28;20064;-64
2023/09/18 04:07:38;;;;;;;114.55;108.75;;;;;;;;;;5038818;28;20052;-63
2023/09/18 04:10:03;;;;;;;114.22;108.55;;;;;;;;;;5039476;28;20202;-64
2023/09/18 04:12:29;;;;;;;112.32;106.63;;;;;;;;;;5039344;28;20071;-64
2023/09/18 04:14:54;;;;;;;121.78;115.60;;;;;;;;;;5021222;28;20139;-63
2023/09/18 04:17:21;;;;;;;99.30;93.70;;;;;;;;;;5038896;28;20426;-63
2023/09/18 04:19:46;;;;;;;114.55;108.63;;;;;;;;;;5039448;28;20035;-63
2023/09/18 04:22:12;;;;;;;115.50;109.63;;;;;;;;;;5041703;28;20336;-64
2023/09/18 04:24:38;;;;;;;110.13;104.55;;;;;;;;;;5039040;28;20124;-64
2023/09/18 04:27:03;;;;;;;107.15;101.75;;;;;;;;;;5038515;28;20044;-64
2023/09/18 04:29:28;;;;;;;122.18;115.68;;;;;;;;;;5023284;28;20052;-64
2023/09/18 04:31:54;;;;;;;115.43;109.47;;;;;;;;;;5036568;28;20523;-66
2023/09/18 04:34:23;;;;;;;125.05;118.57;;;;;;;;;;5038613;28;20037;-66
2023/09/18 04:36:48;;;;;;;113.65;108.05;;;;;;;;;;5022681;28;20045;-67
2023/09/18 04:39:14;;;;;;;113.45;107.70;;;;;;;;;;5036710;28;20025;-66
2023/09/18 04:41:39;;;;;;;100.63;95.57;;;;;;;;;;5038310;28;20613;-66
2023/09/18 04:44:05;;;;;;;105.90;100.45;;;;;;;;;;5037842;28;20052;-67
2023/09/18 04:46:30;;;;;;;112.68;107.03;;;;;;;;;;5038878;28;20021;-67
2023/09/18 04:48:56;;;;;;;106.75;101.45;;;;;;;;;;5037758;28;20041;-67
2023/09/18 04:51:21;;;;;;;102.07;96.97;;;;;;;;;;5023008;28;20033;-67
2023/09/18 04:53:47;;;;;;;93.65;88.90;;;;;;;;;;5021812;28;20056;-67
2023/09/18 04:56:13;;;;;;;94.43;89.68;;;;;;;;;;5038401;28;20044;-67
2023/09/18 04:58:38;;;;;;;101.20;96.15;;;;;;;;;;5037608;28;20043;-67
2023/09/18 05:01:07;;;;;;;109.45;103.93;;;;;;;;;;5040020;28;20028;-67
2023/09/18 05:03:36;;;;;;;93.47;88.80;;;;;;;;;;5036683;28;20029;-66
2023/09/18 05:06:03;;;;;;;83.60;79.28;;;;;;;;;;5040109;28;20033;-69
2023/09/18 05:08:28;;;;;;;86.75;82.40;;;;;;;;;;5037365;28;20052;-68
2023/09/18 05:10:54;;;;;;;90.30;85.75;;;;;;;;;;5036849;28;20124;-67
2023/09/18 05:13:19;;;;;;;94.95;90.10;;;;;;;;;;5038675;28;20033;-67
2023/09/18 05:15:44;;;;;;;93.45;88.78;;;;;;;;;;5037265;28;20064;-67
2023/09/18 05:18:10;;;;;;;90.75;86.22;;;;;;;;;;5039553;28;20029;-66
2023/09/18 05:20:35;;;;;;;89.07;84.30;;;;;;;;;;5038662;28;20501;-66
2023/09/18 05:23:04;;;;;;;96.68;91.32;;;;;;;;;;5036454;28;20037;-67
2023/09/18 05:25:31;;;;;;;89.80;85.32;;;;;;;;;;5038350;28;20087;-67
2023/09/18 05:27:59;;;;;;;89.63;85.07;;;;;;;;;;5037739;28;20041;-64
2023/09/18 05:30:32;;;;;;;88.70;84.03;;;;;;;;;;5035402;28;20052;-65
2023/09/18 05:33:04;;;;;;;79.03;74.80;;;;;;;;;;5039330;28;20040;-63
2023/09/18 05:35:43;;;;;;;92.90;88.22;;;;;;;;;;5038115;28;20163;-68
2023/09/18 05:38:17;;;;;;;89.47;85.00;;;;;;;;;;5038213;28;20041;-69
2023/09/18 05:40:44;;;;;;;88.28;83.75;;;;;;;;;;5040867;28;20044;-68
2023/09/18 05:43:11;;;;;;;84.13;79.90;;;;;;;;;;5037802;28;20114;-64
2023/09/18 05:45:38;;;;;;;84.57;80.35;;;;;;;;;;5036491;28;20324;-64
2023/09/18 05:48:04;;;;;;;92.70;88.13;;;;;;;;;;5039766;28;20052;-64
2023/09/18 05:50:31;;;;;;;88.72;84.25;;;;;;;;;;5038677;28;20094;-64
2023/09/18 05:53:03;;;;;;;95.72;90.93;;;;;;;;;;5037834;28;20035;-69
2023/09/18 05:55:33;;;;;;;92.18;86.72;;;;;;;;;;5027617;28;20033;-69
2023/09/18 05:58:00;;;;;;;81.70;76.90;;;;;;;;;;5044649;28;20025;-69
2023/09/18 06:00:26;;;;;;;86.95;82.53;;;;;;;;;;5045526;28;20041;-68
2023/09/18 06:02:51;;;;;;;89.18;84.57;;;;;;;;;;5030113;28;20033;-65
2023/09/18 06:05:21;;;;;;;90.82;86.32;;;;;;;;;;5042041;28;20500;-66
2023/09/18 06:07:48;;;;;;;88.35;83.90;;;;;;;;;;5046186;28;20118;-69
2023/09/18 06:10:14;;;;;;;88.93;84.50;;;;;;;;;;5045331;28;20044;-64
2023/09/18 06:12:39;;;;;;;99.32;94.20;;;;;;;;;;5049229;28;20120;-64
2023/09/18 06:15:09;;;;;;;101.40;96.40;;;;;;;;;;5030374;28;20037;-68
2023/09/18 06:17:38;;;;;;;89.45;85.00;;;;;;;;;;5044408;28;20089;-65
2023/09/18 06:20:04;;;;;;;84.15;79.85;;;;;;;;;;5046391;28;20088;-68
2023/09/18 06:22:30;;;;;;;98.53;93.30;;;;;;;;;;5043296;28;20123;-67
2023/09/18 06:24:55;;;;;;;105.47;100.13;;;;;;;;;;5045798;28;20092;-68
2023/09/18 06:27:20;;;;;;;100.22;95.22;;;;;;;;;;5046313;28;20024;-64
2023/09/18 06:29:46;;;;;;;103.13;97.85;;;;;;;;;;5042415;28;20116;-64
2023/09/18 06:32:12;;;;;;;100.88;95.88;;;;;;;;;;5046253;28;20071;-63
2023/09/18 06:34:38;;;;;;;105.13;99.93;;;;;;;;;;5041982;28;20032;-65
2023/09/18 06:37:04;;;;;;;117.90;112.00;;;;;;;;;;5044144;28;20044;-70
2023/09/18 06:39:29;;;;;;;98.07;93.18;;;;;;;;;;5043940;28;20364;-69
2023/09/18 06:41:54;;;;;;;106.70;101.25;;;;;;;;;;5045884;28;20040;-69
2023/09/18 06:44:21;;;;;;;103.88;98.20;;;;;;;;;;5041406;28;20570;-67
2023/09/18 06:46:46;;;;;;;103.68;98.38;;;;;;;;;;5040550;28;20455;-68
2023/09/18 06:49:12;;;;;;;104.30;99.10;;;;;;;;;;5042185;28;20051;-69
2023/09/18 06:51:37;;;;;;;100.95;95.95;;;;;;;;;;5041480;28;20025;-69
2023/09/18 06:54:03;;;;;;;116.57;110.60;;;;;;;;;;5042992;28;20547;-68
2023/09/18 06:56:29;;;;;;;104.47;99.20;;;;;;;;;;5029579;28;20037;-68
2023/09/18 06:58:55;;;;;;;103.03;97.78;;;;;;;;;;5042366;28;20136;-68
2023/09/18 07:01:21;;;;;;;94.50;89.50;;;;;;;;;;5042290;28;20091;-68
2023/09/18 07:03:47;;;;;;;91.40;86.88;;;;;;;;;;5044403;28;20132;-69
2023/09/18 07:06:16;;;;;;;96.07;91.22;;;;;;;;;;5043171;28;20121;-68
2023/09/18 07:08:43;;;;;;;101.13;96.07;;;;;;;;;;5039366;28;20061;-68
2023/09/18 07:11:08;;;;;;;110.43;104.68;;;;;;;;;;5024953;28;20037;-68
2023/09/18 07:13:34;;;;;;;102.18;97.13;;;;;;;;;;5040774;28;20040;-68
2023/09/18 07:15:59;;;;;;;104.40;99.07;;;;;;;;;;5042185;28;20044;-69
2023/09/18 07:18:25;;;;;;;110.40;104.80;;;;;;;;;;5041744;28;20033;-69
2023/09/18 07:20:50;;;;;;;114.10;108.38;;;;;;;;;;5043364;28;20033;-68
2023/09/18 07:23:16;;;;;;;120.15;114.25;;;;;;;;;;5040638;28;20041;-68
2023/09/18 07:25:43;;;;;;;115.53;109.80;;;;;;;;;;5039263;28;20056;-69
2023/09/18 07:28:08;;;;;;;98.38;93.53;;;;;;;;;;5042070;28;20086;-64
2023/09/18 07:30:36;;;;;;;103.80;98.55;;;;;;;;;;5040759;28;20563;-64
2023/09/18 07:33:01;;;;;;;101.15;96.15;;;;;;;;;;5041650;28;20589;-64
2023/09/18 07:35:27;;;;;;;112.85;107.07;;;;;;;;;;5041266;28;20120;-64
2023/09/18 07:37:52;;;;;;;105.40;100.20;;;;;;;;;;5041330;28;20056;-64
2023/09/18 07:40:17;;;;;;;126.18;120.00;;;;;;;;;;5041029;28;20117;-64
2023/09/18 07:42:45;;;;;;;105.35;100.15;;;;;;;;;;5039565;28;20292;-64
2023/09/18 07:45:12;;;;;;;107.47;102.13;;;;;;;;;;5039336;28;20440;-64
2023/09/18 07:47:37;;;;;;;97.60;91.85;;;;;;;;;;5024534;28;20048;-64
2023/09/18 07:50:03;;;;;;;96.75;91.82;;;;;;;;;;5039705;28;20025;-64
2023/09/18 07:52:29;;;;;;;110.32;104.93;;;;;;;;;;5037875;28;20365;-63
2023/09/18 07:54:55;;;;;;;111.75;106.25;;;;;;;;;;5041977;28;20020;-64
2023/09/18 07:57:22;;;;;;;98.78;93.88;;;;;;;;;;5036982;28;20043;-63
2023/09/18 07:59:48;;;;;;;122.43;116.32;;;;;;;;;;5036214;28;20364;-64
2023/09/18 08:02:13;;;;;;;123.78;117.32;;;;;;;;;;5041887;28;20033;-64
2023/09/18 08:04:39;;;;;;;98.03;93.15;;;;;;;;;;5037717;28;20029;-64
2023/09/18 08:07:07;;;;;;;105.28;100.05;;;;;;;;;;5040918;28;20356;-63
2023/09/18 08:09:36;;;;;;;97.65;92.65;;;;;;;;;;5038936;28;20317;-64
2023/09/18 08:12:11;;;;;;;95.10;90.05;;;;;;;;;;5040498;28;20036;-64
2023/09/18 08:14:37;;;;;;;78.13;74.22;;;;;;;;;;5039043;28;20476;-64
2023/09/18 08:17:04;;;;;;;72.35;68.75;;;;;;;;;;5036141;28;20325;-64
2023/09/18 08:19:30;;;;;;;69.40;65.95;;;;;;;;;;5037502;28;20428;-64
2023/09/18 08:21:56;;;;;;;60.50;56.33;;;;;;;;;;5036993;28;20045;-65
2023/09/18 08:24:22;;;;;;;52.03;49.13;;;;;;;;;;5039283;28;20228;-64
2023/09/18 08:26:48;;;;;;;47.88;45.40;;;;;;;;;;5037880;28;20099;-64
2023/09/18 08:29:13;;;;;;;64.22;60.80;;;;;;;;;;5038050;28;20045;-64
2023/09/18 08:31:39;;;;;;;60.95;57.88;;;;;;;;;;5038106;28;20123;-64
2023/09/18 08:34:04;;;;;;;56.55;53.22;;;;;;;;;;5038910;28;20094;-64
2023/09/18 08:36:30;;;;;;;62.20;59.08;;;;;;;;;;5038072;28;20029;-64
2023/09/18 08:38:56;;;;;;;58.05;55.13;;;;;;;;;;5040083;28;20043;-64
2023/09/18 08:41:26;;;;;;;62.30;59.17;;;;;;;;;;5038714;28;20026;-64
2023/09/18 08:43:54;;;;;;;69.03;65.47;;;;;;;;;;5037964;28;20041;-64
2023/09/18 08:46:20;;;;;;;66.07;62.75;;;;;;;;;;5040108;28;20047;-64
2023/09/18 08:48:46;;;;;;;76.22;72.35;;;;;;;;;;5037347;28;20025;-64
2023/09/18 08:51:13;;;;;;;93.30;88.68;;;;;;;;;;5037320;28;20040;-64
2023/09/18 08:53:39;;;;;;;79.40;75.45;;;;;;;;;;5037980;28;20472;-63
2023/09/18 08:56:06;;;;;;;87.75;83.32;;;;;;;;;;5038511;28;20247;-64
2023/09/18 08:58:35;;;;;;;96.57;91.85;;;;;;;;;;5039287;28;20121;-63
2023/09/18 09:01:03;;;;;;;96.40;91.60;;;;;;;;;;5036383;28;20044;-64
2023/09/18 09:03:29;;;;;;;99.47;94.57;;;;;;;;;;5038648;28;20033;-63
2023/09/18 09:05:56;;;;;;;106.78;101.20;;;;;;;;;;5037260;28;20505;-64
2023/09/18 09:08:21;;;;;;;94.18;89.50;;;;;;;;;;5037842;28;20033;-64
2023/09/18 09:10:47;;;;;;;99.68;94.80;;;;;;;;;;5037536;28;20044;-64
2023/09/18 09:13:14;;;;;;;97.43;92.57;;;;;;;;;;5037873;28;20045;-64
2023/09/18 09:15:47;;;;;;;108.70;103.25;;;;;;;;;;5039032;28;20116;-64
2023/09/18 09:18:15;;;;;;;102.13;97.10;;;;;;;;;;5040017;28;20526;-64
2023/09/18 09:20:41;;;;;;;134.95;128.18;;;;;;;;;;5037293;28;20292;-64
2023/09/18 09:23:08;;;;;;;127.80;121.50;;;;;;;;;;5037870;28;20033;-65
2023/09/18 09:25:34;;;;;;;131.20;124.78;;;;;;;;;;5038388;28;20041;-64
2023/09/18 09:28:06;;;;;;;138.93;131.98;;;;;;;;;;5038888;28;20357;-64
2023/09/18 09:30:38;;;;;;;168.43;160.23;;;;;;;;;;5039007;28;20040;-64
2023/09/18 09:33:05;;;;;;;146.85;139.65;;;;;;;;;;5022836;28;20041;-64
2023/09/18 09:35:33;;;;;;;160.70;152.85;;;;;;;;;;5038225;28;20045;-64
2023/09/18 09:38:01;;;;;;;182.95;174.18;;;;;;;;;;5036729;28;20037;-63
2023/09/18 09:40:28;;;;;;;178.65;169.93;;;;;;;;;;5041364;28;20060;-63
2023/09/18 09:43:00;;;;;;;178.63;169.93;;;;;;;;;;5036906;28;20079;-64
2023/09/18 09:45:30;;;;;;;172.00;163.45;;;;;;;;;;5038360;28;20040;-64
2023/09/18 09:47:57;;;;;;;169.27;160.95;;;;;;;;;;5042324;28;20109;-63
2023/09/18 09:50:25;;;;;;;143.45;136.38;;;;;;;;;;5036619;28;20053;-63
2023/09/18 09:52:54;;;;;;;160.65;152.85;;;;;;;;;;5037396;28;20068;-63
2023/09/18 09:55:28;;;;;;;169.70;161.27;;;;;;;;;;5040619;28;20036;-64
2023/09/18 09:57:59;;;;;;;180.60;171.82;;;;;;;;;;5037462;28;20371;-63
2023/09/18 10:00:30;;;;;;;159.65;151.88;;;;;;;;;;5037940;28;20037;-64
2023/09/18 10:03:00;;;;;;;;;;;;;;;;;;5038035;28;20028;-64
2023/09/18 10:05:32;;;;;;;100.78;95.82;;;;;;;;;;5036313;28;19944;-64
2023/09/18 10:07:59;;;;;;;143.65;136.52;;;;;;;;;;5037206;28;20321;-63
2023/09/18 10:10:31;;;;;;;144.48;137.43;;;;;;;;;;5038523;28;20044;-64
2023/09/18 10:13:01;;;;;;;149.90;142.55;;;;;;;;;;5040900;28;20030;-63
2023/09/18 10:15:28;;;;;;;202.25;192.55;;;;;;;;;;5036991;28;20025;-64
2023/09/18 10:17:59;;;;;;;184.48;175.40;;;;;;;;;;5037652;28;20632;-63
2023/09/18 10:20:27;;;;;;;176.65;168.05;;;;;;;;;;5020753;28;20053;-63
2023/09/18 10:22:56;;;;;;;193.82;184.30;;;;;;;;;;5039193;28;20047;-63
2023/09/18 10:25:31;;;;;;;208.13;198.07;;;;;;;;;;5039000;28;20041;-63
2023/09/18 10:27:58;;;;;;;193.60;184.25;;;;;;;;;;5037610;28;20113;-63
2023/09/18 10:30:25;;;;;;;212.52;202.30;;;;;;;;;;5038239;28;20064;-63
2023/09/18 10:32:51;;;;;;;205.27;195.38;;;;;;;;;;5036728;28;20056;-63
2023/09/18 10:35:17;;;;;;;169.90;161.65;;;;;;;;;;5038114;28;20126;-63
2023/09/18 10:37:43;;;;;;;189.73;180.55;;;;;;;;;;5051291;28;20036;-64
2023/09/18 10:40:09;;;;;;;173.63;165.18;;;;;;;;;;5040089;28;20364;-63
2023/09/18 10:42:38;;;;;;;151.88;144.05;;;;;;;;;;5040723;28;20113;-63
2023/09/18 10:45:04;;;;;;;154.13;146.60;;;;;;;;;;5040061;28;20672;-63
2023/09/18 10:47:31;;;;;;;154.52;146.95;;;;;;;;;;5043192;28;20030;-63
2023/09/18 10:49:56;;;;;;;189.68;180.10;;;;;;;;;;5041256;28;20060;-63
2023/09/18 10:52:22;;;;;;;186.75;177.70;;;;;;;;;;5041878;28;20459;-64
2023/09/18 10:54:47;;;;;;;210.18;199.98;;;;;;;;;;5042705;28;20033;-63
2023/09/18 10:57:13;;;;;;;265.30;252.38;;;;;;;;;;5056114;28;20024;-64
2023/09/18 10:59:46;;;;;;;268.20;255.20;;;;;;;;;;5042055;28;20036;-64
2023/09/18 11:02:15;;;;;;;300.23;285.42;;;;;;;;;;5041242;28;20048;-63
2023/09/18 11:04:42;;;;;;;314.58;298.98;;;;;;;;;;5041049;28;20018;-63
2023/09/18 11:07:09;;;;;;;352.75;335.10;;;;;;;;;;5040638;28;20038;-63
2023/09/18 11:09:45;;;;;;;315.40;299.90;;;;;;;;;;5012549;28;20464;-63
2023/09/18 11:12:13;;;;;;;295.85;281.38;;;;;;;;;;5026003;28;20037;-65
2023/09/18 11:15:00;;;;;;;275.58;262.17;;;;;;;;;;5037582;28;20063;-63
2023/09/18 11:17:30;;;;;;;289.00;274.80;;;;;;;;;;5036685;28;20486;-64
2023/09/18 11:20:18;;;;;;;263.90;251.15;;;;;;;;;;5039545;28;20098;-64
2023/09/18 11:22:57;;;;;;;226.82;215.85;;;;;;;;;;5041264;28;20417;-64
2023/09/18 11:25:41;;;;;;;216.27;205.75;;;;;;;;;;5038916;28;20053;-64
2023/09/18 11:28:23;;;;;;;217.02;206.52;;;;;;;;;;5040449;28;20037;-64
2023/09/18 11:30:58;;;;;;;248.25;236.18;;;;;;;;;;5042220;28;20084;-65
2023/09/18 11:33:37;;;;;;;262.05;249.27;;;;;;;;;;5038854;28;20479;-64
2023/09/18 11:36:07;;;;;;;325.10;309.10;;;;;;;;;;5024394;28;20037;-64
2023/09/18 11:38:35;;;;;;;325.08;309.13;;;;;;;;;;5040622;28;20036;-64
2023/09/18 11:41:19;;;;;;;324.90;308.83;;;;;;;;;;5042784;28;20212;-63
2023/09/18 11:43:44;;;;;;;301.20;286.27;;;;;;;;;;5051100;28;20111;-69
2023/09/18 11:46:12;;;;;;;363.38;345.13;;;;;;;;;;5040886;28;20144;-69
2023/09/18 11:48:41;;;;;;;314.70;299.25;;;;;;;;;;5043209;28;20128;-66
2023/09/18 11:51:10;;;;;;;331.95;315.50;;;;;;;;;;5040278;28;20036;-65
2023/09/18 11:53:41;;;;;;;335.92;319.08;;;;;;;;;;5039840;28;20037;-65
2023/09/18 11:56:18;;;;;;;376.27;357.13;;;;;;;;;;5041566;28;20128;-65
2023/09/18 11:58:46;;;;;;;380.58;361.35;;;;;;;;;;5040464;28;20036;-65
2023/09/18 12:01:13;;;;;;;377.60;358.50;;;;;;;;;;5041257;28;20407;-65
2023/09/18 12:03:38;;;;;;;397.90;377.58;;;;;;;;;;5040933;28;20033;-63
2023/09/18 12:06:05;;;;;;;362.48;344.25;;;;;;;;;;5041327;28;20036;-64
2023/09/18 12:08:30;;;;;;;381.05;361.67;;;;;;;;;;5039821;28;20103;-63
2023/09/18 12:10:56;;;;;;;393.90;373.90;;;;;;;;;;5041538;28;20029;-69
2023/09/18 12:13:24;;;;;;;390.80;371.05;;;;;;;;;;5041167;28;20554;-70
2023/09/18 12:15:49;;;;;;;394.65;374.75;;;;;;;;;;5025558;28;20128;-69
2023/09/18 12:18:15;;;;;;;366.48;348.08;;;;;;;;;;5041155;28;20507;-70
2023/09/18 12:20:48;;;;;;;381.45;362.05;;;;;;;;;;5041857;28;20033;-68
2023/09/18 12:23:15;;;;;;;380.00;360.88;;;;;;;;;;5039234;28;20037;-64
2023/09/18 12:25:41;;;;;;;355.27;337.48;;;;;;;;;;5040463;28;20037;-64
2023/09/18 12:28:07;;;;;;;358.27;340.23;;;;;;;;;;5022726;28;20043;-70
2023/09/18 12:30:33;;;;;;;365.98;347.40;;;;;;;;;;5023917;28;20477;-69
2023/09/18 12:33:03;;;;;;;372.17;353.30;;;;;;;;;;5025606;28;20040;-70
2023/09/18 12:35:29;;;;;;;383.52;363.98;;;;;;;;;;5039017;28;20060;-64
2023/09/18 12:38:05;;;;;;;415.50;394.25;;;;;;;;;;5040151;28;20033;-69
2023/09/18 12:40:33;;;;;;;393.60;373.73;;;;;;;;;;5038714;28;20449;-64
2023/09/18 12:42:59;;;;;;;437.98;415.27;;;;;;;;;;5041174;28;20490;-71
2023/09/18 12:45:25;;;;;;;389.83;370.08;;;;;;;;;;5022654;28;20435;-65
2023/09/18 12:47:52;;;;;;;411.17;390.10;;;;;;;;;;5039445;28;20061;-64
2023/09/18 12:50:17;;;;;;;308.42;293.15;;;;;;;;;;5038821;28;20059;-69
2023/09/18 12:52:44;;;;;;;506.20;476.38;;;;;;;;;;5036231;28;20491;-68
2023/09/18 12:55:21;;;;;;;333.17;316.38;;;;;;;;;;5039550;28;20036;-65
2023/09/18 12:57:49;;;;;;;260.15;247.32;;;;;;;;;;5037962;28;20145;-69
2023/09/18 13:00:19;;;;;;;178.23;169.50;;;;;;;;;;5037792;28;20090;-65
2023/09/18 13:02:45;;;;;;;244.20;232.32;;;;;;;;;;5040221;28;20033;-65
2023/09/18 13:05:11;;;;;;;172.80;164.35;;;;;;;;;;5039427;28;20029;-68
2023/09/18 13:07:45;;;;;;;171.05;162.63;;;;;;;;;;5037317;28;20408;-69
2023/09/18 13:10:11;;;;;;;203.05;193.20;;;;;;;;;;5038693;28;20130;-68
2023/09/18 13:12:43;;;;;;;198.68;189.00;;;;;;;;;;5038912;28;20070;-69
2023/09/18 13:15:09;;;;;;;182.93;173.80;;;;;;;;;;5038217;28;20026;-66
2023/09/18 13:17:44;;;;;;;168.73;160.40;;;;;;;;;;5035789;28;20050;-68
2023/09/18 13:20:14;;;;;;;145.18;138.00;;;;;;;;;;5035793;28;20090;-69
2023/09/18 13:22:41;;;;;;;118.15;112.32;;;;;;;;;;5037900;28;20103;-65
2023/09/18 13:25:13;;;;;;;123.78;117.68;;;;;;;;;;5035014;28;20033;-66
2023/09/18 13:27:38;;;;;;;145.10;137.95;;;;;;;;;;5038136;28;20033;-66
2023/09/18 13:30:08;;;;;;;154.70;147.10;;;;;;;;;;5037389;28;20048;-66
2023/09/18 13:32:37;;;;;;;136.40;129.60;;;;;;;;;;5037994;28;20033;-65
2023/09/18 13:35:06;;;;;;;140.30;133.38;;;;;;;;;;5039653;28;20037;-66
2023/09/18 13:37:33;;;;;;;129.77;123.32;;;;;;;;;;5036193;28;20036;-65
2023/09/18 13:40:01;;;;;;;141.98;134.95;;;;;;;;;;5037564;28;20372;-65
2023/09/18 13:42:29;;;;;;;131.77;125.30;;;;;;;;;;5037749;28;20033;-65
2023/09/18 13:44:55;;;;;;;144.15;137.02;;;;;;;;;;5038916;28;20025;-65
2023/09/18 13:47:21;;;;;;;169.88;161.55;;;;;;;;;;5041503;28;20061;-69
2023/09/18 13:49:47;;;;;;;182.43;173.52;;;;;;;;;;5038321;28;20037;-66
2023/09/18 13:52:13;;;;;;;250.27;238.07;;;;;;;;;;5037938;28;20170;-66
2023/09/18 13:54:38;;;;;;;242.57;230.75;;;;;;;;;;5037763;28;20458;-65
2023/09/18 13:57:04;;;;;;;258.00;245.32;;;;;;;;;;5035858;28;20040;-65
2023/09/18 13:59:30;;;;;;;298.98;284.23;;;;;;;;;;5037621;28;20373;-65